createdAt,value
2022-08-12T00:00:29.585Z,14.08
2022-08-12T00:02:02.965Z,14.02
2022-08-12T00:03:00.801Z,14.08
2022-08-12T00:04:06.616Z,14.20
2022-08-12T00:05:12.348Z,14.19
2022-08-12T00:06:17.944Z,14.27
2022-08-12T00:07:23.516Z,14.29
2022-08-12T00:08:35.684Z,14.21
2022-08-12T00:09:42.596Z,14.15
2022-08-12T00:10:48.226Z,14.11
2022-08-12T00:11:53.975Z,14.15
2022-08-12T00:12:59.675Z,14.22
2022-08-12T00:14:05.546Z,14.22
2022-08-12T00:15:11.195Z,14.17
2022-08-12T00:16:17.174Z,14.09
2022-08-12T00:17:23.450Z,14.07
2022-08-12T00:18:28.875Z,13.98
2022-08-12T00:19:34.593Z,14.03
2022-08-12T00:20:40.065Z,13.99
2022-08-12T00:21:45.780Z,13.99
2022-08-12T00:22:58.969Z,14.03
2022-08-12T00:24:05.285Z,14.01
2022-08-12T00:25:17.435Z,13.90
2022-08-12T00:26:24.617Z,13.95
2022-08-12T00:27:43.311Z,13.93
2022-08-12T00:28:50.166Z,13.88
2022-08-12T00:29:56.584Z,13.81
2022-08-12T00:31:02.156Z,13.84
2022-08-12T00:32:07.514Z,13.79
2022-08-12T00:33:17.715Z,13.75
2022-08-12T00:34:23.405Z,13.82
2022-08-12T00:35:36.880Z,13.75
2022-08-12T00:36:46.776Z,13.71
2022-08-12T00:37:56.425Z,13.81
2022-08-12T00:39:02.175Z,13.81
2022-08-12T00:40:10.820Z,13.79
2022-08-12T00:41:17.905Z,13.85
2022-08-12T00:42:10.827Z,13.92
2022-08-12T00:42:58.307Z,13.95
2022-08-12T00:43:46.395Z,13.96
2022-08-12T00:44:33.216Z,14.00
2022-08-12T00:45:21.050Z,14.02
2022-08-12T00:46:26.016Z,14.06
2022-08-12T00:47:24.669Z,14.07
2022-08-12T00:48:12.665Z,13.97
2022-08-12T00:48:59.974Z,13.99
2022-08-12T00:49:50.285Z,14.01
2022-08-12T00:50:37.216Z,14.05
2022-08-12T00:51:45.285Z,14.04
2022-08-12T00:52:34.370Z,14.08
2022-08-12T00:53:22.446Z,14.10
2022-08-12T00:54:09.525Z,14.10
2022-08-12T00:54:59.195Z,14.16
2022-08-12T00:55:47.154Z,14.21
2022-08-12T00:56:34.186Z,14.25
2022-08-12T00:57:23.810Z,14.25
2022-08-12T00:58:11.275Z,14.28
2022-08-12T00:58:59.855Z,14.28
2022-08-12T00:59:51.442Z,14.35
2022-08-12T01:00:39.745Z,14.36
2022-08-12T01:01:27.039Z,14.41
2022-08-12T01:02:36.437Z,14.48
2022-08-12T01:03:23.605Z,14.58
2022-08-12T01:04:29.376Z,14.54
2022-08-12T01:05:37.720Z,14.51
2022-08-12T01:06:43.265Z,14.56
2022-08-12T01:07:48.744Z,14.59
2022-08-12T01:08:54.385Z,14.52
2022-08-12T01:10:00.006Z,14.55
2022-08-12T01:11:06.635Z,14.52
2022-08-12T01:11:54.064Z,14.66
2022-08-12T01:12:42.426Z,14.64
2022-08-12T01:13:31.284Z,14.67
2022-08-12T01:14:21.225Z,14.67
2022-08-12T01:15:08.934Z,14.69
2022-08-12T01:15:59.245Z,14.67
2022-08-12T01:16:48.224Z,14.70
2022-08-12T01:17:36.943Z,14.69
2022-08-12T01:18:26.714Z,14.69
2022-08-12T01:19:13.754Z,14.69
2022-08-12T01:20:06.375Z,14.69
2022-08-12T01:20:53.173Z,14.64
2022-08-12T01:22:04.024Z,14.65
2022-08-12T01:22:55.556Z,14.70
2022-08-12T01:24:30.425Z,14.67
2022-08-12T01:25:19.845Z,14.79
2022-08-12T01:26:08.714Z,14.83
2022-08-12T01:26:56.725Z,14.94
2022-08-12T01:27:44.746Z,14.94
2022-08-12T01:28:32.094Z,14.95
2022-08-12T01:29:28.563Z,14.91
2022-08-12T01:30:19.405Z,14.93
2022-08-12T01:31:06.634Z,14.95
2022-08-12T01:31:57.666Z,15.01
2022-08-12T01:32:47.727Z,15.00
2022-08-12T01:33:59.866Z,15.00
2022-08-12T01:34:56.344Z,14.96
2022-08-12T01:35:57.854Z,14.98
2022-08-12T01:37:00.764Z,15.00
2022-08-12T01:37:58.865Z,15.06
2022-08-12T01:38:48.314Z,15.03
2022-08-12T01:40:33.181Z,15.05
2022-08-12T01:40:49.388Z,15.01
2022-08-12T01:41:50.455Z,15.03
2022-08-12T01:42:46.864Z,15.04
2022-08-12T01:43:34.365Z,15.09
2022-08-12T01:44:22.655Z,15.18
2022-08-12T01:45:12.594Z,15.27
2022-08-12T01:46:39.224Z,15.32
2022-08-12T01:47:43.332Z,15.36
2022-08-12T01:48:52.654Z,15.41
2022-08-12T01:50:01.964Z,15.43
2022-08-12T01:52:07.505Z,15.43
2022-08-12T01:52:49.554Z,15.41
2022-08-12T01:54:04.749Z,15.40
2022-08-12T01:54:52.085Z,15.47
2022-08-12T01:55:42.174Z,15.54
2022-08-12T01:56:41.994Z,15.51
2022-08-12T01:57:59.733Z,15.52
2022-08-12T01:59:07.385Z,15.66
2022-08-12T02:00:06.579Z,15.56
2022-08-12T02:01:00.546Z,15.55
2022-08-12T02:01:50.832Z,15.48
2022-08-12T02:02:47.759Z,15.47
2022-08-12T02:03:53.144Z,15.42
2022-08-12T02:05:07.508Z,15.42
2022-08-12T02:06:27.775Z,15.43
2022-08-12T02:07:39.544Z,15.50
2022-08-12T02:09:11.094Z,15.53
2022-08-12T02:10:50.497Z,15.66
2022-08-12T02:11:36.626Z,15.65
2022-08-12T02:12:49.621Z,15.60
2022-08-12T02:14:14.095Z,15.52
2022-08-12T02:15:13.231Z,15.52
2022-08-12T02:16:08.094Z,15.51
2022-08-12T02:17:19.924Z,15.45
2022-08-12T02:18:26.819Z,15.29
2022-08-12T02:19:45.305Z,15.34
2022-08-12T02:20:52.254Z,15.28
2022-08-12T02:21:46.665Z,15.20
2022-08-12T02:22:42.471Z,15.29
2022-08-12T02:23:29.555Z,15.30
2022-08-12T02:24:20.774Z,15.26
2022-08-12T02:25:33.945Z,15.23
2022-08-12T02:26:21.034Z,15.24
2022-08-12T02:27:09.620Z,15.21
2022-08-12T02:27:56.973Z,15.19
2022-08-12T02:28:43.983Z,15.23
2022-08-12T02:29:31.156Z,15.22
2022-08-12T02:30:22.206Z,15.22
2022-08-12T02:31:09.674Z,15.20
2022-08-12T02:31:57.583Z,15.15
2022-08-12T02:32:46.284Z,15.14
2022-08-12T02:33:33.744Z,15.11
2022-08-12T02:34:22.094Z,15.08
2022-08-12T02:35:24.094Z,15.06
2022-08-12T02:36:10.985Z,14.99
2022-08-12T02:37:02.519Z,14.97
2022-08-12T02:37:54.316Z,15.00
2022-08-12T02:38:43.463Z,14.98
2022-08-12T02:39:34.710Z,14.97
2022-08-12T02:40:23.183Z,14.95
2022-08-12T02:41:12.234Z,14.94
2022-08-12T02:42:01.244Z,14.99
2022-08-12T02:42:54.114Z,14.95
2022-08-12T02:43:46.896Z,14.89
2022-08-12T02:44:38.416Z,14.85
2022-08-12T02:45:38.231Z,14.78
2022-08-12T02:46:32.991Z,14.78
2022-08-12T02:47:59.204Z,14.78
2022-08-12T02:48:31.883Z,14.75
2022-08-12T02:49:27.928Z,14.77
2022-08-12T02:50:16.384Z,14.78
2022-08-12T02:51:13.287Z,14.74
2022-08-12T02:52:00.513Z,14.74
2022-08-12T02:52:47.843Z,14.76
2022-08-12T02:53:36.813Z,14.67
2022-08-12T02:54:23.641Z,14.66
2022-08-12T02:55:28.641Z,14.64
2022-08-12T02:56:21.604Z,14.61
2022-08-12T02:57:08.483Z,14.51
2022-08-12T02:57:56.054Z,14.50
2022-08-12T02:58:45.285Z,14.48
2022-08-12T02:59:34.784Z,14.45
2022-08-12T03:00:22.064Z,14.42
2022-08-12T03:01:11.828Z,14.40
2022-08-12T03:02:06.138Z,14.47
2022-08-12T03:02:53.124Z,14.45
2022-08-12T03:03:41.543Z,14.47
2022-08-12T03:04:40.180Z,14.49
2022-08-12T03:05:33.244Z,14.45
2022-08-12T03:07:01.404Z,14.50
2022-08-12T03:07:59.813Z,14.47
2022-08-12T03:08:51.851Z,14.39
2022-08-12T03:10:04.631Z,14.41
2022-08-12T03:10:55.194Z,14.38
2022-08-12T03:12:06.344Z,14.39
2022-08-12T03:12:57.743Z,14.27
2022-08-12T03:13:54.646Z,14.21
2022-08-12T03:14:45.984Z,14.16
2022-08-12T03:15:33.304Z,14.12
2022-08-12T03:16:20.984Z,14.09
2022-08-12T03:17:11.853Z,14.15
2022-08-12T03:18:26.535Z,14.19
2022-08-12T03:19:15.364Z,14.13
2022-08-12T03:20:10.630Z,14.02
2022-08-12T03:21:01.922Z,14.07
2022-08-12T03:21:59.912Z,14.06
2022-08-12T03:22:56.444Z,14.03
2022-08-12T03:23:46.223Z,14.05
2022-08-12T03:24:33.683Z,14.01
2022-08-12T03:25:27.687Z,13.95
2022-08-12T03:26:15.094Z,13.89
2022-08-12T03:27:03.368Z,13.89
2022-08-12T03:27:51.886Z,13.91
2022-08-12T03:28:51.056Z,13.93
2022-08-12T03:29:43.270Z,13.92
2022-08-12T03:30:38.204Z,13.96
2022-08-12T03:31:35.253Z,13.93
2022-08-12T03:32:36.353Z,13.92
2022-08-12T03:33:24.071Z,13.92
2022-08-12T03:34:14.234Z,13.91
2022-08-12T03:35:02.392Z,13.79
2022-08-12T03:35:50.154Z,13.72
2022-08-12T03:36:39.693Z,13.71
2022-08-12T03:37:30.514Z,13.79
2022-08-12T03:38:18.673Z,13.79
2022-08-12T03:39:19.930Z,13.75
2022-08-12T03:40:46.234Z,13.75
2022-08-12T03:41:36.184Z,13.79
2022-08-12T03:42:51.981Z,13.80
2022-08-12T03:44:04.227Z,13.84
2022-08-12T03:45:18.504Z,13.81
2022-08-12T03:46:29.943Z,13.70
2022-08-12T03:47:41.868Z,13.71
2022-08-12T03:48:47.713Z,13.73
2022-08-12T03:49:53.993Z,13.83
2022-08-12T03:50:59.785Z,13.77
2022-08-12T03:52:05.354Z,13.73
2022-08-12T03:53:10.954Z,13.76
2022-08-12T03:54:16.735Z,13.75
2022-08-12T03:55:22.432Z,13.80
2022-08-12T03:56:28.163Z,13.67
2022-08-12T03:57:33.863Z,13.71
2022-08-12T03:58:39.880Z,13.69
2022-08-12T03:59:45.544Z,13.70
2022-08-12T04:00:33.566Z,13.64
2022-08-12T04:01:23.267Z,13.67
2022-08-12T04:02:15.413Z,13.73
2022-08-12T04:03:02.327Z,13.79
2022-08-12T04:03:53.081Z,13.90
2022-08-12T04:04:45.493Z,13.86
2022-08-12T04:05:56.204Z,13.84
2022-08-12T04:06:47.554Z,13.82
2022-08-12T04:07:34.544Z,13.90
2022-08-12T04:08:24.814Z,13.85
2022-08-12T04:09:16.080Z,13.81
2022-08-12T04:10:04.723Z,13.79
2022-08-12T04:11:10.225Z,13.78
2022-08-12T04:12:15.824Z,13.84
2022-08-12T04:13:19.967Z,13.93
2022-08-12T04:14:20.821Z,13.98
2022-08-12T04:15:11.124Z,13.95
2022-08-12T04:15:58.835Z,13.96
2022-08-12T04:16:46.323Z,13.93
2022-08-12T04:17:33.713Z,13.96
2022-08-12T04:18:21.254Z,13.91
2022-08-12T04:19:08.313Z,13.88
2022-08-12T04:19:56.814Z,13.95
2022-08-12T04:20:44.853Z,13.84
2022-08-12T04:21:35.043Z,13.85
2022-08-12T04:22:23.253Z,13.85
2022-08-12T04:23:16.815Z,13.85
2022-08-12T04:24:04.463Z,13.92
2022-08-12T04:24:54.027Z,14.00
2022-08-12T04:25:41.577Z,14.01
2022-08-12T04:26:29.187Z,13.97
2022-08-12T04:27:16.104Z,13.99
2022-08-12T04:28:12.996Z,14.08
2022-08-12T04:29:01.183Z,14.11
2022-08-12T04:30:29.581Z,14.20
2022-08-12T04:30:57.675Z,14.25
2022-08-12T04:31:44.513Z,14.44
2022-08-12T04:32:32.289Z,14.59
2022-08-12T04:33:19.766Z,14.72
2022-08-12T04:34:07.835Z,14.85
2022-08-12T04:34:55.404Z,14.91
2022-08-12T04:35:42.344Z,15.07
2022-08-12T04:36:30.345Z,15.17
2022-08-12T04:37:17.233Z,15.37
2022-08-12T04:38:05.455Z,15.46
2022-08-12T04:38:57.667Z,15.47
2022-08-12T04:39:46.672Z,15.59
2022-08-12T04:40:36.617Z,15.54
2022-08-12T04:41:24.304Z,15.58
2022-08-12T04:42:11.254Z,15.52
2022-08-12T04:42:58.865Z,15.68
2022-08-12T04:43:54.505Z,15.77
2022-08-12T04:44:49.439Z,15.90
2022-08-12T04:45:38.004Z,16.07
2022-08-12T04:46:30.607Z,16.05
2022-08-12T04:47:21.949Z,16.03
2022-08-12T04:48:08.982Z,16.18
2022-08-12T04:48:56.291Z,16.32
2022-08-12T04:49:45.222Z,16.36
2022-08-12T04:50:36.034Z,16.50
2022-08-12T04:51:24.944Z,16.54
2022-08-12T04:52:12.443Z,16.77
2022-08-12T04:53:00.925Z,16.90
2022-08-12T04:53:49.183Z,16.92
2022-08-12T04:54:36.398Z,16.82
2022-08-12T04:55:23.906Z,17.03
2022-08-12T04:56:13.449Z,17.21
2022-08-12T04:57:04.285Z,17.27
2022-08-12T04:57:51.963Z,17.37
2022-08-12T04:58:39.106Z,17.64
2022-08-12T04:59:25.924Z,18.03
2022-08-12T05:00:14.515Z,18.79
2022-08-12T05:01:01.424Z,19.80
2022-08-12T05:01:52.675Z,20.66
2022-08-12T05:02:40.433Z,21.70
2022-08-12T05:03:28.063Z,22.43
2022-08-12T05:04:16.252Z,22.72
2022-08-12T05:05:05.433Z,22.59
2022-08-12T05:05:52.557Z,22.16
2022-08-12T05:06:39.394Z,21.62
2022-08-12T05:07:26.615Z,21.34
2022-08-12T05:08:18.104Z,21.17
2022-08-12T05:09:11.137Z,21.09
2022-08-12T05:10:01.995Z,21.04
2022-08-12T05:10:49.423Z,21.00
2022-08-12T05:11:37.084Z,20.83
2022-08-12T05:12:46.931Z,20.76
2022-08-12T05:13:39.775Z,20.85
2022-08-12T05:14:26.734Z,20.83
2022-08-12T05:15:21.241Z,20.89
2022-08-12T05:16:16.305Z,21.03
2022-08-12T05:17:12.944Z,21.08
2022-08-12T05:18:02.188Z,21.11
2022-08-12T05:19:06.413Z,21.16
2022-08-12T05:20:06.393Z,21.33
2022-08-12T05:20:54.564Z,21.65
2022-08-12T05:21:41.363Z,22.04
2022-08-12T05:22:28.983Z,22.30
2022-08-12T05:23:20.633Z,22.26
2022-08-12T05:24:07.783Z,21.94
2022-08-12T05:24:54.884Z,21.82
2022-08-12T05:25:43.488Z,21.57
2022-08-12T05:26:30.522Z,21.69
2022-08-12T05:27:18.333Z,21.44
2022-08-12T05:28:08.324Z,21.46
2022-08-12T05:28:55.283Z,21.44
2022-08-12T05:30:07.787Z,21.46
2022-08-12T05:30:50.483Z,21.29
2022-08-12T05:31:42.494Z,21.26
2022-08-12T05:32:35.618Z,21.72
2022-08-12T05:33:35.863Z,22.61
2022-08-12T05:34:26.679Z,23.01
2022-08-12T05:35:15.903Z,22.81
2022-08-12T05:36:02.893Z,22.58
2022-08-12T05:36:49.772Z,22.43
2022-08-12T05:37:36.770Z,21.94
2022-08-12T05:38:42.139Z,21.81
2022-08-12T05:39:28.967Z,21.69
2022-08-12T05:40:16.522Z,21.26
2022-08-12T05:41:06.104Z,21.36
2022-08-12T05:41:53.724Z,21.04
2022-08-12T05:42:40.523Z,20.91
2022-08-12T05:43:27.704Z,20.75
2022-08-12T05:44:16.994Z,20.72
2022-08-12T05:45:04.333Z,20.67
2022-08-12T05:45:51.513Z,20.43
2022-08-12T05:46:38.605Z,20.47
2022-08-12T05:47:36.667Z,20.33
2022-08-12T05:48:32.743Z,20.12
2022-08-12T05:49:19.603Z,20.10
2022-08-12T05:50:06.875Z,20.15
2022-08-12T05:50:53.716Z,20.28
2022-08-12T05:51:41.846Z,20.44
2022-08-12T05:52:28.784Z,20.51
2022-08-12T05:53:15.883Z,20.37
2022-08-12T05:54:02.874Z,20.44
2022-08-12T05:54:57.402Z,20.31
2022-08-12T05:55:44.794Z,20.23
2022-08-12T05:56:34.946Z,20.29
2022-08-12T05:57:22.045Z,20.35
2022-08-12T05:58:09.083Z,20.45
2022-08-12T05:58:57.614Z,20.50
2022-08-12T05:59:44.473Z,20.52
2022-08-12T06:00:32.256Z,20.47
2022-08-12T06:02:09.313Z,20.47
2022-08-12T06:02:27.853Z,20.44
2022-08-12T06:03:19.691Z,20.54
2022-08-12T06:04:08.817Z,20.57
2022-08-12T06:05:00.495Z,20.69
2022-08-12T06:05:54.648Z,20.57
2022-08-12T06:06:42.485Z,20.42
2022-08-12T06:07:59.408Z,20.40
2022-08-12T06:08:36.448Z,20.48
2022-08-12T06:09:23.365Z,20.57
2022-08-12T06:10:10.399Z,20.63
2022-08-12T06:10:57.511Z,20.59
2022-08-12T06:12:05.247Z,20.63
2022-08-12T06:12:53.914Z,20.62
2022-08-12T06:13:53.796Z,20.21
2022-08-12T06:14:41.484Z,20.06
2022-08-12T06:15:28.807Z,20.15
2022-08-12T06:16:20.404Z,20.49
2022-08-12T06:17:09.286Z,20.95
2022-08-12T06:18:11.437Z,21.17
2022-08-12T06:19:01.645Z,21.27
2022-08-12T06:20:28.138Z,21.27
2022-08-12T06:21:01.511Z,21.21
2022-08-12T06:21:49.024Z,20.90
2022-08-12T06:22:35.831Z,20.88
2022-08-12T06:23:22.892Z,20.84
2022-08-12T06:24:14.365Z,20.94
2022-08-12T06:25:01.248Z,21.00
2022-08-12T06:25:48.048Z,21.23
2022-08-12T06:26:35.045Z,21.55
2022-08-12T06:27:21.984Z,21.91
2022-08-12T06:28:19.683Z,21.99
2022-08-12T06:29:06.746Z,21.80
2022-08-12T06:30:08.907Z,21.59
2022-08-12T06:31:24.893Z,21.19
2022-08-12T06:32:07.669Z,21.19
2022-08-12T06:33:18.750Z,21.29
2022-08-12T06:35:25.500Z,21.25
2022-08-12T06:35:26.731Z,21.32
2022-08-12T06:36:21.741Z,21.37
2022-08-12T06:37:10.344Z,21.58
2022-08-12T06:37:58.403Z,21.63
2022-08-12T06:38:46.313Z,21.45
2022-08-12T06:39:33.433Z,21.58
2022-08-12T06:40:38.984Z,21.71
2022-08-12T06:42:02.662Z,21.70
2022-08-12T06:42:54.354Z,21.71
2022-08-12T06:44:05.612Z,22.34
2022-08-12T06:44:50.730Z,22.38
2022-08-12T06:45:45.947Z,22.61
2022-08-12T06:46:33.443Z,22.84
2022-08-12T06:47:22.175Z,22.82
2022-08-12T06:48:09.724Z,22.98
2022-08-12T06:48:59.166Z,23.18
2022-08-12T06:49:46.335Z,22.92
2022-08-12T06:50:36.871Z,22.69
2022-08-12T06:51:28.607Z,22.63
2022-08-12T06:52:15.524Z,22.49
2022-08-12T06:53:04.633Z,22.43
2022-08-12T06:53:51.446Z,22.42
2022-08-12T06:54:38.304Z,22.43
2022-08-12T06:55:26.254Z,22.38
2022-08-12T06:56:13.325Z,22.31
2022-08-12T06:57:56.920Z,22.42
2022-08-12T06:58:10.524Z,22.51
2022-08-12T06:58:58.134Z,22.45
2022-08-12T06:59:45.136Z,22.56
2022-08-12T07:00:34.200Z,22.37
2022-08-12T07:01:21.190Z,22.20
2022-08-12T07:02:08.824Z,22.30
2022-08-12T07:02:56.045Z,22.54
2022-08-12T07:03:42.867Z,22.46
2022-08-12T07:04:38.224Z,22.19
2022-08-12T07:05:26.344Z,22.15
2022-08-12T07:06:13.907Z,22.36
2022-08-12T07:07:00.900Z,22.54
2022-08-12T07:07:48.034Z,22.73
2022-08-12T07:08:35.614Z,22.87
2022-08-12T07:10:04.004Z,22.82
2022-08-12T07:10:33.201Z,22.99
2022-08-12T07:11:20.035Z,23.11
2022-08-12T07:12:20.036Z,23.01
2022-08-12T07:13:09.768Z,22.96
2022-08-12T07:14:11.953Z,23.08
2022-08-12T07:15:02.006Z,23.06
2022-08-12T07:15:50.544Z,23.17
2022-08-12T07:16:52.686Z,22.85
2022-08-12T07:17:40.862Z,23.04
2022-08-12T07:18:30.242Z,23.32
2022-08-12T07:19:17.440Z,23.46
2022-08-12T07:20:06.930Z,23.32
2022-08-12T07:20:54.124Z,23.19
2022-08-12T07:21:59.668Z,23.13
2022-08-12T07:22:49.887Z,22.98
2022-08-12T07:23:39.173Z,23.30
2022-08-12T07:24:26.457Z,23.62
2022-08-12T07:25:41.242Z,23.89
2022-08-12T07:26:29.604Z,24.10
2022-08-12T07:27:17.594Z,24.27
2022-08-12T07:28:16.254Z,24.24
2022-08-12T07:29:05.163Z,24.21
2022-08-12T07:29:57.940Z,24.13
2022-08-12T07:30:53.614Z,23.98
2022-08-12T07:31:41.006Z,23.22
2022-08-12T07:32:29.575Z,23.23
2022-08-12T07:33:17.285Z,23.27
2022-08-12T07:34:05.635Z,23.41
2022-08-12T07:34:54.795Z,23.58
2022-08-12T07:35:48.442Z,23.64
2022-08-12T07:36:35.630Z,23.14
2022-08-12T07:37:22.745Z,22.97
2022-08-12T07:38:33.824Z,23.02
2022-08-12T07:39:20.889Z,23.14
2022-08-12T07:40:11.883Z,23.17
2022-08-12T07:41:05.804Z,23.28
2022-08-12T07:41:52.594Z,23.28
2022-08-12T07:42:41.190Z,23.39
2022-08-12T07:43:28.428Z,23.49
2022-08-12T07:44:15.675Z,23.09
2022-08-12T07:45:04.914Z,22.75
2022-08-12T07:45:53.509Z,22.93
2022-08-12T07:46:43.419Z,23.17
2022-08-12T07:47:31.095Z,23.19
2022-08-12T07:48:18.084Z,23.14
2022-08-12T07:49:07.414Z,23.10
2022-08-12T07:50:04.183Z,23.20
2022-08-12T07:50:53.564Z,23.27
2022-08-12T07:51:42.376Z,23.32
2022-08-12T07:52:29.574Z,23.51
2022-08-12T07:53:16.613Z,23.54
2022-08-12T07:54:09.445Z,23.58
2022-08-12T07:54:56.503Z,23.55
2022-08-12T07:55:43.654Z,23.45
2022-08-12T07:56:31.524Z,23.37
2022-08-12T07:57:18.464Z,23.46
2022-08-12T07:58:05.788Z,23.48
2022-08-12T07:58:52.730Z,23.42
2022-08-12T07:59:40.264Z,23.39
2022-08-12T08:00:28.478Z,23.24
2022-08-12T08:01:21.508Z,23.16
2022-08-12T08:02:10.160Z,23.27
2022-08-12T08:02:58.874Z,23.41
2022-08-12T08:04:05.267Z,23.44
2022-08-12T08:04:58.251Z,23.35
2022-08-12T08:05:46.694Z,22.92
2022-08-12T08:06:34.154Z,22.75
2022-08-12T08:07:21.804Z,22.62
2022-08-12T08:08:21.130Z,22.76
2022-08-12T08:09:10.254Z,22.81
2022-08-12T08:10:00.602Z,22.73
2022-08-12T08:10:48.099Z,22.72
2022-08-12T08:11:53.863Z,22.90
2022-08-12T08:12:58.355Z,23.03
2022-08-12T08:13:46.204Z,23.18
2022-08-12T08:14:33.206Z,23.32
2022-08-12T08:15:21.003Z,23.32
2022-08-12T08:16:08.464Z,23.35
2022-08-12T08:16:59.148Z,23.34
2022-08-12T08:18:02.846Z,23.43
2022-08-12T08:18:49.828Z,23.55
2022-08-12T08:20:03.105Z,23.67
2022-08-12T08:20:45.829Z,23.62
2022-08-12T08:21:35.644Z,23.74
2022-08-12T08:22:33.461Z,23.73
2022-08-12T08:23:56.372Z,23.35
2022-08-12T08:24:45.835Z,23.24
2022-08-12T08:25:36.026Z,23.22
2022-08-12T08:26:25.375Z,23.32
2022-08-12T08:27:12.484Z,23.53
2022-08-12T08:28:04.066Z,23.60
2022-08-12T08:28:50.875Z,23.63
2022-08-12T08:29:37.955Z,23.49
2022-08-12T08:30:24.874Z,23.46
2022-08-12T08:31:14.460Z,23.67
2022-08-12T08:32:01.887Z,23.80
2022-08-12T08:32:48.963Z,23.84
2022-08-12T08:34:04.761Z,23.86
2022-08-12T08:34:52.986Z,23.95
2022-08-12T08:35:46.802Z,24.01
2022-08-12T08:36:34.545Z,24.02
2022-08-12T08:37:21.433Z,23.55
2022-08-12T08:38:14.786Z,23.38
2022-08-12T08:39:24.951Z,23.24
2022-08-12T08:40:31.116Z,23.37
2022-08-12T08:42:16.429Z,23.52
2022-08-12T08:42:50.817Z,23.34
2022-08-12T08:43:44.667Z,23.60
2022-08-12T08:44:32.408Z,23.66
2022-08-12T08:45:19.545Z,23.57
2022-08-12T08:46:06.454Z,23.72
2022-08-12T08:46:55.842Z,23.86
2022-08-12T08:47:49.564Z,23.94
2022-08-12T08:48:36.573Z,23.95
2022-08-12T08:49:23.866Z,23.88
2022-08-12T08:50:11.386Z,23.86
2022-08-12T08:51:04.730Z,23.93
2022-08-12T08:51:52.435Z,24.05
2022-08-12T08:52:40.982Z,24.12
2022-08-12T08:53:28.007Z,23.98
2022-08-12T08:54:15.355Z,23.90
2022-08-12T08:55:02.246Z,23.82
2022-08-12T08:56:04.547Z,23.75
2022-08-12T08:56:52.529Z,23.79
2022-08-12T08:57:43.762Z,23.84
2022-08-12T08:58:31.394Z,23.73
2022-08-12T08:59:19.645Z,23.80
2022-08-12T09:00:07.525Z,23.93
2022-08-12T09:00:56.494Z,24.05
2022-08-12T09:01:44.627Z,23.98
2022-08-12T09:02:31.908Z,23.95
2022-08-12T09:05:09.196Z,23.93
2022-08-12T09:05:14.398Z,24.03
2022-08-12T09:06:01.723Z,24.18
2022-08-12T09:06:53.525Z,24.27
2022-08-12T09:07:58.863Z,24.25
2022-08-12T09:08:52.518Z,24.34
2022-08-12T09:10:02.128Z,24.44
2022-08-12T09:10:47.284Z,24.40
2022-08-12T09:12:11.870Z,24.13
2022-08-12T09:14:29.467Z,24.13
2022-08-12T09:16:24.405Z,23.91
2022-08-12T09:17:14.232Z,24.05
2022-08-12T09:18:09.530Z,24.15
2022-08-12T09:18:56.442Z,24.29
2022-08-12T09:19:43.433Z,24.20
2022-08-12T09:20:33.776Z,24.00
2022-08-12T09:22:29.397Z,24.02
2022-08-12T09:23:58.431Z,24.16
2022-08-12T09:24:27.834Z,24.14
2022-08-12T09:25:25.306Z,24.17
2022-08-12T09:26:13.051Z,24.23
2022-08-12T09:26:59.894Z,24.35
2022-08-12T09:28:04.342Z,24.35
2022-08-12T09:28:54.076Z,24.16
2022-08-12T09:30:09.851Z,23.86
2022-08-12T09:30:51.344Z,23.88
2022-08-12T09:32:05.812Z,23.99
2022-08-12T09:33:03.816Z,23.97
2022-08-12T09:34:28.118Z,23.92
2022-08-12T09:34:59.748Z,24.08
2022-08-12T09:35:46.990Z,24.11
2022-08-12T09:37:00.742Z,24.07
2022-08-12T09:37:58.092Z,24.02
2022-08-12T09:38:58.567Z,23.95
2022-08-12T09:40:06.051Z,23.91
2022-08-12T09:41:02.233Z,24.02
2022-08-12T09:42:40.334Z,24.03
2022-08-12T09:43:53.930Z,23.96
2022-08-12T09:45:18.023Z,23.90
2022-08-12T09:46:20.311Z,24.08
2022-08-12T09:47:10.476Z,24.20
2022-08-12T09:48:00.377Z,24.41
2022-08-12T09:48:56.253Z,24.51
2022-08-12T09:49:43.952Z,24.32
2022-08-12T09:50:31.783Z,24.21
2022-08-12T09:51:22.491Z,24.16
2022-08-12T09:52:12.073Z,24.16
2022-08-12T09:54:32.826Z,24.15
2022-08-12T09:54:33.054Z,24.17
2022-08-12T09:56:05.294Z,24.27
2022-08-12T09:56:59.778Z,24.33
2022-08-12T09:58:44.565Z,24.45
2022-08-12T09:59:00.096Z,24.52
2022-08-12T10:00:15.153Z,24.60
2022-08-12T10:01:14.706Z,24.68
2022-08-12T10:02:43.341Z,24.80
2022-08-12T10:03:32.174Z,24.83
2022-08-12T10:04:19.786Z,24.66
2022-08-12T10:05:13.169Z,24.67
2022-08-12T10:06:26.532Z,24.63
2022-08-12T10:07:23.039Z,24.61
2022-08-12T10:08:16.638Z,24.72
2022-08-12T10:09:08.591Z,24.67
2022-08-12T10:09:57.938Z,24.74
2022-08-12T10:11:07.936Z,24.80
2022-08-12T10:12:13.904Z,24.86
2022-08-12T10:13:34.350Z,24.84
2022-08-12T10:14:34.945Z,24.74
2022-08-12T10:16:02.774Z,24.64
2022-08-12T10:16:39.283Z,24.86
2022-08-12T10:17:26.545Z,24.89
2022-08-12T10:18:13.785Z,24.94
2022-08-12T10:19:06.182Z,24.99
2022-08-12T10:20:05.235Z,24.95
2022-08-12T10:20:57.825Z,24.93
2022-08-12T10:21:45.274Z,24.80
2022-08-12T10:22:40.193Z,24.65
2022-08-12T10:23:40.113Z,24.67
2022-08-12T10:24:27.606Z,24.82
2022-08-12T10:26:36.751Z,24.92
2022-08-12T10:26:59.997Z,25.02
2022-08-12T10:28:24.661Z,25.16
2022-08-12T10:30:40.769Z,25.31
2022-08-12T10:30:43.916Z,25.14
2022-08-12T10:32:19.767Z,24.72
2022-08-12T10:32:44.813Z,24.94
2022-08-12T10:33:43.593Z,25.03
2022-08-12T10:34:53.183Z,25.12
2022-08-12T10:35:44.126Z,25.26
2022-08-12T10:36:40.104Z,25.39
2022-08-12T10:38:35.354Z,25.32
2022-08-12T10:38:41.329Z,25.24
2022-08-12T10:40:03.290Z,25.29
2022-08-12T10:41:01.050Z,25.31
2022-08-12T10:42:09.816Z,25.33
2022-08-12T10:43:16.727Z,25.35
2022-08-12T10:44:05.425Z,25.34
2022-08-12T10:44:53.865Z,25.11
2022-08-12T10:45:42.503Z,25.08
2022-08-12T10:46:33.354Z,25.14
2022-08-12T10:47:25.962Z,25.22
2022-08-12T10:48:34.121Z,25.08
2022-08-12T10:50:03.078Z,25.10
2022-08-12T10:51:01.091Z,25.01
2022-08-12T10:52:04.972Z,25.13
2022-08-12T10:52:52.635Z,25.27
2022-08-12T10:53:46.749Z,25.35
2022-08-12T10:54:33.850Z,25.44
2022-08-12T10:55:23.285Z,25.53
2022-08-12T10:56:16.274Z,25.36
2022-08-12T10:57:03.127Z,25.37
2022-08-12T10:58:14.690Z,25.37
2022-08-12T10:58:58.331Z,25.38
2022-08-12T11:00:30.676Z,25.30
2022-08-12T11:01:26.274Z,25.26
2022-08-12T11:04:15.892Z,25.37
2022-08-12T11:04:23.648Z,25.36
2022-08-12T11:04:27.909Z,25.48
2022-08-12T11:07:06.193Z,25.57
2022-08-12T11:07:06.905Z,25.48
2022-08-12T11:08:34.387Z,25.63
2022-08-12T11:08:42.193Z,25.75
2022-08-12T11:09:55.835Z,25.89
2022-08-12T11:10:45.689Z,25.86
2022-08-12T11:12:36.189Z,25.76
2022-08-12T11:12:59.120Z,25.78
2022-08-12T11:13:48.734Z,25.63
2022-08-12T11:14:49.558Z,25.75
2022-08-12T11:16:04.321Z,25.82
2022-08-12T11:17:33.591Z,25.90
2022-08-12T11:17:54.831Z,25.91
2022-08-12T11:18:43.356Z,25.77
2022-08-12T11:19:34.921Z,25.80
2022-08-12T11:20:30.936Z,25.80
2022-08-12T11:21:18.147Z,25.82
2022-08-12T11:22:07.595Z,25.73
2022-08-12T11:22:59.908Z,25.66
2022-08-12T11:23:53.519Z,25.81
2022-08-12T11:24:40.875Z,25.80
2022-08-12T11:25:56.697Z,25.89
2022-08-12T11:26:45.239Z,26.02
2022-08-12T11:27:32.425Z,25.91
2022-08-12T11:28:33.399Z,25.93
2022-08-12T11:29:23.894Z,25.93
2022-08-12T11:30:31.307Z,25.95
2022-08-12T11:31:18.233Z,26.00
2022-08-12T11:32:05.635Z,25.96
2022-08-12T11:32:52.547Z,26.03
2022-08-12T11:34:05.859Z,26.08
2022-08-12T11:34:53.140Z,26.06
2022-08-12T11:35:42.959Z,26.06
2022-08-12T11:36:30.542Z,26.11
2022-08-12T11:37:25.699Z,26.20
2022-08-12T11:38:13.625Z,26.25
2022-08-12T11:39:07.331Z,26.22
2022-08-12T11:40:53.715Z,26.07
2022-08-12T11:41:40.791Z,26.17
2022-08-12T11:42:32.477Z,26.27
2022-08-12T11:43:20.526Z,26.34
2022-08-12T11:44:36.612Z,26.48
2022-08-12T11:45:16.623Z,26.55
2022-08-12T11:46:04.132Z,26.64
2022-08-12T11:46:53.197Z,26.67
2022-08-12T11:47:40.609Z,26.67
2022-08-12T11:48:27.695Z,26.70
2022-08-12T11:49:34.649Z,26.71
2022-08-12T11:50:25.703Z,26.60
2022-08-12T11:51:19.911Z,26.54
2022-08-12T11:52:17.539Z,26.67
2022-08-12T11:53:58.904Z,26.78
2022-08-12T11:54:21.467Z,26.91
2022-08-12T11:55:09.204Z,26.94
2022-08-12T11:56:02.319Z,26.73